sensor_id;sensor_type;location;lat;lon;timestamp;temperature;humidity
33831;DHT22;20137;48.834;8.732;2023-04-25T00:01:15;6.50;99.90
33831;DHT22;20137;48.834;8.732;2023-04-25T00:03:40;6.50;99.90
33831;DHT22;20137;48.834;8.732;2023-04-25T00:06:06;6.40;99.90
33831;DHT22;20137;48.834;8.732;2023-04-25T00:08:33;6.30;99.90
33831;DHT22;20137;48.834;8.732;2023-04-25T00:11:01;6.20;99.90
33831;DHT22;20137;48.834;8.732;2023-04-25T00:13:26;6.20;99.90
33831;DHT22;20137;48.834;8.732;2023-04-25T00:15:52;6.30;99.90
33831;DHT22;20137;48.834;8.732;2023-04-25T00:18:19;6.30;99.90
33831;DHT22;20137;48.834;8.732;2023-04-25T00:20:45;6.40;99.90
33831;DHT22;20137;48.834;8.732;2023-04-25T00:23:18;6.30;99.90
33831;DHT22;20137;48.834;8.732;2023-04-25T00:25:44;6.40;99.90
33831;DHT22;20137;48.834;8.732;2023-04-25T00:28:11;6.50;99.90
33831;DHT22;20137;48.834;8.732;2023-04-25T00:30:38;6.50;99.90
33831;DHT22;20137;48.834;8.732;2023-04-25T00:33:03;6.60;99.90
33831;DHT22;20137;48.834;8.732;2023-04-25T00:35:29;6.70;99.90
33831;DHT22;20137;48.834;8.732;2023-04-25T00:37:55;6.80;99.90
33831;DHT22;20137;48.834;8.732;2023-04-25T00:40:21;6.80;99.90
33831;DHT22;20137;48.834;8.732;2023-04-25T00:42:47;6.70;99.90
33831;DHT22;20137;48.834;8.732;2023-04-25T00:45:14;6.70;99.90
33831;DHT22;20137;48.834;8.732;2023-04-25T00:47:41;6.60;99.90
33831;DHT22;20137;48.834;8.732;2023-04-25T00:50:08;6.50;99.90
33831;DHT22;20137;48.834;8.732;2023-04-25T00:52:34;6.40;99.90
33831;DHT22;20137;48.834;8.732;2023-04-25T00:55:00;6.40;99.90
33831;DHT22;20137;48.834;8.732;2023-04-25T00:57:26;6.40;99.90
33831;DHT22;20137;48.834;8.732;2023-04-25T00:59:53;6.40;99.90
33831;DHT22;20137;48.834;8.732;2023-04-25T01:02:19;6.40;99.90
33831;DHT22;20137;48.834;8.732;2023-04-25T01:04:47;6.40;99.90
33831;DHT22;20137;48.834;8.732;2023-04-25T01:07:13;6.30;99.90
33831;DHT22;20137;48.834;8.732;2023-04-25T01:09:39;6.20;99.90
33831;DHT22;20137;48.834;8.732;2023-04-25T01:12:05;6.30;99.90
33831;DHT22;20137;48.834;8.732;2023-04-25T01:14:31;6.30;99.90
33831;DHT22;20137;48.834;8.732;2023-04-25T01:16:57;6.40;99.90
33831;DHT22;20137;48.834;8.732;2023-04-25T01:19:23;6.40;99.90
33831;DHT22;20137;48.834;8.732;2023-04-25T01:21:50;6.40;99.90
33831;DHT22;20137;48.834;8.732;2023-04-25T01:24:16;6.60;99.90
33831;DHT22;20137;48.834;8.732;2023-04-25T01:26:43;6.60;99.90
33831;DHT22;20137;48.834;8.732;2023-04-25T01:29:17;6.60;99.90
33831;DHT22;20137;48.834;8.732;2023-04-25T01:31:43;6.70;99.90
33831;DHT22;20137;48.834;8.732;2023-04-25T01:34:10;6.50;99.90
33831;DHT22;20137;48.834;8.732;2023-04-25T01:36:36;6.50;99.90
33831;DHT22;20137;48.834;8.732;2023-04-25T01:39:02;6.50;99.90
33831;DHT22;20137;48.834;8.732;2023-04-25T01:41:28;6.50;99.90
33831;DHT22;20137;48.834;8.732;2023-04-25T01:43:54;6.50;99.90
33831;DHT22;20137;48.834;8.732;2023-04-25T01:46:20;6.50;99.90
33831;DHT22;20137;48.834;8.732;2023-04-25T01:48:46;6.50;99.90
33831;DHT22;20137;48.834;8.732;2023-04-25T01:51:12;6.40;99.90
33831;DHT22;20137;48.834;8.732;2023-04-25T01:53:38;6.30;99.90
33831;DHT22;20137;48.834;8.732;2023-04-25T01:56:04;6.30;99.90
33831;DHT22;20137;48.834;8.732;2023-04-25T01:58:30;6.30;99.90
33831;DHT22;20137;48.834;8.732;2023-04-25T02:00:56;6.20;99.90
33831;DHT22;20137;48.834;8.732;2023-04-25T02:03:22;6.10;99.90
33831;DHT22;20137;48.834;8.732;2023-04-25T02:05:48;6.10;99.90
33831;DHT22;20137;48.834;8.732;2023-04-25T02:08:13;6.10;99.90
33831;DHT22;20137;48.834;8.732;2023-04-25T02:10:39;6.10;99.90
33831;DHT22;20137;48.834;8.732;2023-04-25T02:13:05;6.20;99.90
33831;DHT22;20137;48.834;8.732;2023-04-25T02:15:31;6.10;99.90
33831;DHT22;20137;48.834;8.732;2023-04-25T02:17:57;6.10;99.90
33831;DHT22;20137;48.834;8.732;2023-04-25T02:20:23;6.10;99.90
33831;DHT22;20137;48.834;8.732;2023-04-25T02:22:50;6.10;99.90
33831;DHT22;20137;48.834;8.732;2023-04-25T02:25:16;6.20;99.90
33831;DHT22;20137;48.834;8.732;2023-04-25T02:27:42;6.10;99.90
33831;DHT22;20137;48.834;8.732;2023-04-25T02:30:08;6.00;99.90
33831;DHT22;20137;48.834;8.732;2023-04-25T02:32:34;6.00;99.90
33831;DHT22;20137;48.834;8.732;2023-04-25T02:35:01;6.10;99.90
33831;DHT22;20137;48.834;8.732;2023-04-25T02:37:31;6.10;99.90
33831;DHT22;20137;48.834;8.732;2023-04-25T02:39:56;6.20;99.90
33831;DHT22;20137;48.834;8.732;2023-04-25T02:42:22;6.10;99.90
33831;DHT22;20137;48.834;8.732;2023-04-25T02:44:48;6.20;99.90
33831;DHT22;20137;48.834;8.732;2023-04-25T02:47:14;6.20;99.90
33831;DHT22;20137;48.834;8.732;2023-04-25T02:49:39;6.20;99.90
33831;DHT22;20137;48.834;8.732;2023-04-25T02:52:05;6.20;99.90
33831;DHT22;20137;48.834;8.732;2023-04-25T02:54:31;6.20;99.90
33831;DHT22;20137;48.834;8.732;2023-04-25T02:56:57;6.30;99.90
33831;DHT22;20137;48.834;8.732;2023-04-25T02:59:23;6.30;99.90
33831;DHT22;20137;48.834;8.732;2023-04-25T03:01:48;6.30;99.90
33831;DHT22;20137;48.834;8.732;2023-04-25T03:04:14;6.20;99.90
33831;DHT22;20137;48.834;8.732;2023-04-25T03:06:40;6.30;99.90
33831;DHT22;20137;48.834;8.732;2023-04-25T03:09:06;6.20;99.90
33831;DHT22;20137;48.834;8.732;2023-04-25T03:11:31;6.30;99.90
33831;DHT22;20137;48.834;8.732;2023-04-25T03:13:57;6.30;99.90
33831;DHT22;20137;48.834;8.732;2023-04-25T03:16:23;6.30;99.90
33831;DHT22;20137;48.834;8.732;2023-04-25T03:18:49;6.30;99.90
33831;DHT22;20137;48.834;8.732;2023-04-25T03:21:16;6.30;99.90
33831;DHT22;20137;48.834;8.732;2023-04-25T03:23:42;6.20;99.90
33831;DHT22;20137;48.834;8.732;2023-04-25T03:26:07;6.20;99.90
33831;DHT22;20137;48.834;8.732;2023-04-25T03:28:33;6.20;99.90
33831;DHT22;20137;48.834;8.732;2023-04-25T03:30:59;6.20;99.90
33831;DHT22;20137;48.834;8.732;2023-04-25T03:33:25;6.20;99.90
33831;DHT22;20137;48.834;8.732;2023-04-25T03:35:50;6.10;99.90
33831;DHT22;20137;48.834;8.732;2023-04-25T03:38:17;6.20;99.90
33831;DHT22;20137;48.834;8.732;2023-04-25T03:40:42;6.10;99.90
33831;DHT22;20137;48.834;8.732;2023-04-25T03:43:08;6.20;99.90
33831;DHT22;20137;48.834;8.732;2023-04-25T03:45:34;6.10;99.90
33831;DHT22;20137;48.834;8.732;2023-04-25T03:48:00;6.10;99.90
33831;DHT22;20137;48.834;8.732;2023-04-25T03:50:25;6.10;99.90
33831;DHT22;20137;48.834;8.732;2023-04-25T03:52:51;6.10;99.90
33831;DHT22;20137;48.834;8.732;2023-04-25T03:55:16;6.00;99.90
33831;DHT22;20137;48.834;8.732;2023-04-25T03:57:42;6.00;99.90
33831;DHT22;20137;48.834;8.732;2023-04-25T04:00:08;5.90;99.90
33831;DHT22;20137;48.834;8.732;2023-04-25T04:02:35;5.90;99.90
33831;DHT22;20137;48.834;8.732;2023-04-25T04:05:02;5.90;99.90
33831;DHT22;20137;48.834;8.732;2023-04-25T04:07:28;5.90;99.90
33831;DHT22;20137;48.834;8.732;2023-04-25T04:09:53;5.90;99.90
33831;DHT22;20137;48.834;8.732;2023-04-25T04:12:19;6.00;99.90
33831;DHT22;20137;48.834;8.732;2023-04-25T04:14:45;6.00;99.90
33831;DHT22;20137;48.834;8.732;2023-04-25T04:17:10;6.10;99.90
33831;DHT22;20137;48.834;8.732;2023-04-25T04:19:36;6.10;99.90
33831;DHT22;20137;48.834;8.732;2023-04-25T04:22:02;6.10;99.90
33831;DHT22;20137;48.834;8.732;2023-04-25T04:24:28;6.10;99.90
33831;DHT22;20137;48.834;8.732;2023-04-25T04:26:53;6.20;99.90
33831;DHT22;20137;48.834;8.732;2023-04-25T04:29:19;6.20;99.90
33831;DHT22;20137;48.834;8.732;2023-04-25T04:31:50;6.20;99.90
33831;DHT22;20137;48.834;8.732;2023-04-25T04:34:19;6.30;99.90
33831;DHT22;20137;48.834;8.732;2023-04-25T04:36:45;6.20;99.90
33831;DHT22;20137;48.834;8.732;2023-04-25T04:39:14;6.30;99.90
33831;DHT22;20137;48.834;8.732;2023-04-25T04:41:40;6.20;99.90
33831;DHT22;20137;48.834;8.732;2023-04-25T04:44:05;6.10;99.90
33831;DHT22;20137;48.834;8.732;2023-04-25T04:46:32;6.00;99.90
33831;DHT22;20137;48.834;8.732;2023-04-25T04:49:04;5.80;99.90
33831;DHT22;20137;48.834;8.732;2023-04-25T04:51:30;5.60;99.90
33831;DHT22;20137;48.834;8.732;2023-04-25T04:53:56;5.60;99.90
33831;DHT22;20137;48.834;8.732;2023-04-25T04:56:24;5.50;99.90
33831;DHT22;20137;48.834;8.732;2023-04-25T04:58:50;5.50;99.90
33831;DHT22;20137;48.834;8.732;2023-04-25T05:01:16;5.40;99.90
33831;DHT22;20137;48.834;8.732;2023-04-25T05:03:42;5.40;99.90
33831;DHT22;20137;48.834;8.732;2023-04-25T05:06:07;5.40;99.90
33831;DHT22;20137;48.834;8.732;2023-04-25T05:08:34;5.60;99.90
33831;DHT22;20137;48.834;8.732;2023-04-25T05:10:59;5.60;99.90
33831;DHT22;20137;48.834;8.732;2023-04-25T05:13:25;5.70;99.90
33831;DHT22;20137;48.834;8.732;2023-04-25T05:15:51;5.70;99.90
33831;DHT22;20137;48.834;8.732;2023-04-25T05:18:16;5.80;99.90
33831;DHT22;20137;48.834;8.732;2023-04-25T05:20:42;5.80;99.90
33831;DHT22;20137;48.834;8.732;2023-04-25T05:23:07;5.90;99.90
33831;DHT22;20137;48.834;8.732;2023-04-25T05:25:33;6.00;99.90
33831;DHT22;20137;48.834;8.732;2023-04-25T05:27:59;5.90;99.90
33831;DHT22;20137;48.834;8.732;2023-04-25T05:30:25;5.90;99.90
33831;DHT22;20137;48.834;8.732;2023-04-25T05:32:50;6.00;99.90
33831;DHT22;20137;48.834;8.732;2023-04-25T05:35:16;6.00;99.90
33831;DHT22;20137;48.834;8.732;2023-04-25T05:37:42;6.00;99.90
33831;DHT22;20137;48.834;8.732;2023-04-25T05:40:08;6.00;99.90
33831;DHT22;20137;48.834;8.732;2023-04-25T05:42:34;6.10;99.90
33831;DHT22;20137;48.834;8.732;2023-04-25T05:44:59;6.20;99.90
33831;DHT22;20137;48.834;8.732;2023-04-25T05:47:26;6.30;99.90
33831;DHT22;20137;48.834;8.732;2023-04-25T05:49:52;6.40;99.90
33831;DHT22;20137;48.834;8.732;2023-04-25T05:52:18;6.50;99.90
33831;DHT22;20137;48.834;8.732;2023-04-25T05:54:43;6.60;99.90
33831;DHT22;20137;48.834;8.732;2023-04-25T05:57:21;6.60;99.90
33831;DHT22;20137;48.834;8.732;2023-04-25T05:59:48;6.70;99.90
33831;DHT22;20137;48.834;8.732;2023-04-25T06:02:14;6.70;99.90
33831;DHT22;20137;48.834;8.732;2023-04-25T06:04:39;6.80;99.90
33831;DHT22;20137;48.834;8.732;2023-04-25T06:07:05;6.90;99.90
33831;DHT22;20137;48.834;8.732;2023-04-25T06:09:30;6.90;99.90
33831;DHT22;20137;48.834;8.732;2023-04-25T06:11:56;6.90;99.90
33831;DHT22;20137;48.834;8.732;2023-04-25T06:14:22;6.90;99.90
33831;DHT22;20137;48.834;8.732;2023-04-25T06:16:47;6.90;99.90
33831;DHT22;20137;48.834;8.732;2023-04-25T06:19:13;6.90;99.90
33831;DHT22;20137;48.834;8.732;2023-04-25T06:21:39;6.80;99.90
33831;DHT22;20137;48.834;8.732;2023-04-25T06:24:04;6.80;99.90
33831;DHT22;20137;48.834;8.732;2023-04-25T06:26:30;6.80;99.90
33831;DHT22;20137;48.834;8.732;2023-04-25T06:28:56;6.70;99.90
33831;DHT22;20137;48.834;8.732;2023-04-25T06:31:21;6.80;99.90
33831;DHT22;20137;48.834;8.732;2023-04-25T06:33:47;6.80;99.90
33831;DHT22;20137;48.834;8.732;2023-04-25T06:36:13;6.80;99.90
33831;DHT22;20137;48.834;8.732;2023-04-25T06:38:39;6.70;99.90
33831;DHT22;20137;48.834;8.732;2023-04-25T06:41:05;6.80;99.90
33831;DHT22;20137;48.834;8.732;2023-04-25T06:43:31;6.80;99.90
33831;DHT22;20137;48.834;8.732;2023-04-25T06:45:59;6.80;99.90
33831;DHT22;20137;48.834;8.732;2023-04-25T06:48:26;6.70;99.90
33831;DHT22;20137;48.834;8.732;2023-04-25T06:50:53;6.60;99.90
33831;DHT22;20137;48.834;8.732;2023-04-25T06:53:19;6.70;99.90
33831;DHT22;20137;48.834;8.732;2023-04-25T06:55:45;6.80;99.90
33831;DHT22;20137;48.834;8.732;2023-04-25T06:58:10;6.80;99.90
33831;DHT22;20137;48.834;8.732;2023-04-25T07:00:36;6.90;99.90
33831;DHT22;20137;48.834;8.732;2023-04-25T07:03:02;7.10;99.90
33831;DHT22;20137;48.834;8.732;2023-04-25T07:05:28;7.20;99.90
33831;DHT22;20137;48.834;8.732;2023-04-25T07:07:53;7.30;99.90
33831;DHT22;20137;48.834;8.732;2023-04-25T07:10:20;7.30;99.90
33831;DHT22;20137;48.834;8.732;2023-04-25T07:12:46;7.30;99.90
33831;DHT22;20137;48.834;8.732;2023-04-25T07:15:12;7.20;99.90
33831;DHT22;20137;48.834;8.732;2023-04-25T07:17:38;7.20;99.90
33831;DHT22;20137;48.834;8.732;2023-04-25T07:20:04;7.10;99.90
33831;DHT22;20137;48.834;8.732;2023-04-25T07:22:32;7.00;99.90
33831;DHT22;20137;48.834;8.732;2023-04-25T07:24:57;7.00;99.90
33831;DHT22;20137;48.834;8.732;2023-04-25T07:27:23;6.90;99.90
33831;DHT22;20137;48.834;8.732;2023-04-25T07:29:49;6.90;99.90
33831;DHT22;20137;48.834;8.732;2023-04-25T07:32:14;6.80;99.90
33831;DHT22;20137;48.834;8.732;2023-04-25T07:34:40;6.70;99.90
33831;DHT22;20137;48.834;8.732;2023-04-25T07:37:07;6.70;99.90
33831;DHT22;20137;48.834;8.732;2023-04-25T07:39:32;6.70;99.90
33831;DHT22;20137;48.834;8.732;2023-04-25T07:41:58;6.80;99.90
33831;DHT22;20137;48.834;8.732;2023-04-25T07:44:24;6.80;99.90
33831;DHT22;20137;48.834;8.732;2023-04-25T07:46:51;6.70;99.90
33831;DHT22;20137;48.834;8.732;2023-04-25T07:49:16;6.70;99.90
33831;DHT22;20137;48.834;8.732;2023-04-25T07:51:42;6.70;99.90
33831;DHT22;20137;48.834;8.732;2023-04-25T07:54:13;6.70;99.90
33831;DHT22;20137;48.834;8.732;2023-04-25T07:56:39;6.80;99.90
33831;DHT22;20137;48.834;8.732;2023-04-25T07:59:05;6.90;99.90
33831;DHT22;20137;48.834;8.732;2023-04-25T08:01:30;6.80;99.90
33831;DHT22;20137;48.834;8.732;2023-04-25T08:03:56;6.80;99.90
33831;DHT22;20137;48.834;8.732;2023-04-25T08:06:22;6.70;99.90
33831;DHT22;20137;48.834;8.732;2023-04-25T08:08:47;6.80;99.90
33831;DHT22;20137;48.834;8.732;2023-04-25T08:11:13;6.70;99.90
33831;DHT22;20137;48.834;8.732;2023-04-25T08:13:39;6.60;99.90
33831;DHT22;20137;48.834;8.732;2023-04-25T08:16:05;6.60;99.90
33831;DHT22;20137;48.834;8.732;2023-04-25T08:18:30;6.60;99.90
33831;DHT22;20137;48.834;8.732;2023-04-25T08:20:56;6.70;99.90
33831;DHT22;20137;48.834;8.732;2023-04-25T08:23:22;6.60;99.90
33831;DHT22;20137;48.834;8.732;2023-04-25T08:25:48;6.60;99.90
33831;DHT22;20137;48.834;8.732;2023-04-25T08:28:14;6.50;99.90
33831;DHT22;20137;48.834;8.732;2023-04-25T08:30:40;6.50;99.90
33831;DHT22;20137;48.834;8.732;2023-04-25T08:33:06;6.40;99.90
33831;DHT22;20137;48.834;8.732;2023-04-25T08:35:32;6.40;99.90
33831;DHT22;20137;48.834;8.732;2023-04-25T08:37:58;6.40;99.90
33831;DHT22;20137;48.834;8.732;2023-04-25T08:40:27;6.50;99.90
33831;DHT22;20137;48.834;8.732;2023-04-25T08:42:57;6.40;99.90
33831;DHT22;20137;48.834;8.732;2023-04-25T08:45:22;6.40;99.90
33831;DHT22;20137;48.834;8.732;2023-04-25T08:47:51;6.40;99.90
33831;DHT22;20137;48.834;8.732;2023-04-25T08:50:18;6.40;99.90
33831;DHT22;20137;48.834;8.732;2023-04-25T08:52:47;6.30;99.90
33831;DHT22;20137;48.834;8.732;2023-04-25T08:55:15;6.30;99.90
33831;DHT22;20137;48.834;8.732;2023-04-25T08:57:42;6.50;99.90
33831;DHT22;20137;48.834;8.732;2023-04-25T09:00:09;6.50;99.90
33831;DHT22;20137;48.834;8.732;2023-04-25T09:02:35;6.60;99.90
33831;DHT22;20137;48.834;8.732;2023-04-25T09:05:02;6.60;99.90
33831;DHT22;20137;48.834;8.732;2023-04-25T09:07:30;6.70;99.90
33831;DHT22;20137;48.834;8.732;2023-04-25T09:09:55;6.90;99.90
33831;DHT22;20137;48.834;8.732;2023-04-25T09:12:21;7.00;99.90
33831;DHT22;20137;48.834;8.732;2023-04-25T09:15:06;6.90;99.90
33831;DHT22;20137;48.834;8.732;2023-04-25T09:17:32;6.90;99.90
33831;DHT22;20137;48.834;8.732;2023-04-25T09:20:11;7.00;99.90
33831;DHT22;20137;48.834;8.732;2023-04-25T09:22:38;7.10;99.90
33831;DHT22;20137;48.834;8.732;2023-04-25T09:25:11;7.10;99.90
33831;DHT22;20137;48.834;8.732;2023-04-25T09:27:57;7.20;99.90
33831;DHT22;20137;48.834;8.732;2023-04-25T09:30:31;7.30;99.90
33831;DHT22;20137;48.834;8.732;2023-04-25T09:33:03;7.30;99.90
33831;DHT22;20137;48.834;8.732;2023-04-25T09:35:29;7.50;99.90
33831;DHT22;20137;48.834;8.732;2023-04-25T09:37:55;7.70;99.90
33831;DHT22;20137;48.834;8.732;2023-04-25T09:40:21;7.80;99.90
33831;DHT22;20137;48.834;8.732;2023-04-25T09:42:47;8.00;99.90
33831;DHT22;20137;48.834;8.732;2023-04-25T09:45:13;8.00;99.90
33831;DHT22;20137;48.834;8.732;2023-04-25T09:47:41;8.00;99.90
33831;DHT22;20137;48.834;8.732;2023-04-25T09:50:16;7.90;99.90
33831;DHT22;20137;48.834;8.732;2023-04-25T09:52:43;7.90;99.90
33831;DHT22;20137;48.834;8.732;2023-04-25T09:55:08;7.80;99.90
33831;DHT22;20137;48.834;8.732;2023-04-25T09:57:35;7.80;99.90
33831;DHT22;20137;48.834;8.732;2023-04-25T10:00:05;7.90;99.90
33831;DHT22;20137;48.834;8.732;2023-04-25T10:02:35;7.90;99.90
33831;DHT22;20137;48.834;8.732;2023-04-25T10:05:06;8.10;99.90
33831;DHT22;20137;48.834;8.732;2023-04-25T10:07:33;8.30;99.90
33831;DHT22;20137;48.834;8.732;2023-04-25T10:10:04;8.30;99.90
33831;DHT22;20137;48.834;8.732;2023-04-25T10:12:30;8.00;99.90
33831;DHT22;20137;48.834;8.732;2023-04-25T10:14:59;8.20;99.90
33831;DHT22;20137;48.834;8.732;2023-04-25T10:17:29;8.50;99.90
33831;DHT22;20137;48.834;8.732;2023-04-25T10:19:54;8.40;99.90
33831;DHT22;20137;48.834;8.732;2023-04-25T10:22:29;8.20;99.90
33831;DHT22;20137;48.834;8.732;2023-04-25T10:24:56;7.90;99.90
33831;DHT22;20137;48.834;8.732;2023-04-25T10:27:22;7.60;99.90
33831;DHT22;20137;48.834;8.732;2023-04-25T10:30:07;7.20;99.90
33831;DHT22;20137;48.834;8.732;2023-04-25T10:32:35;6.80;99.90
33831;DHT22;20137;48.834;8.732;2023-04-25T10:35:15;6.50;99.90
33831;DHT22;20137;48.834;8.732;2023-04-25T10:38:16;6.30;99.90
33831;DHT22;20137;48.834;8.732;2023-04-25T10:40:42;6.10;99.90
33831;DHT22;20137;48.834;8.732;2023-04-25T10:45:56;6.20;99.90
33831;DHT22;20137;48.834;8.732;2023-04-25T10:48:26;6.20;99.90
33831;DHT22;20137;48.834;8.732;2023-04-25T10:51:11;6.20;99.90
33831;DHT22;20137;48.834;8.732;2023-04-25T10:53:37;6.10;99.90
33831;DHT22;20137;48.834;8.732;2023-04-25T10:56:16;6.20;99.90
33831;DHT22;20137;48.834;8.732;2023-04-25T10:58:43;6.30;99.90
33831;DHT22;20137;48.834;8.732;2023-04-25T11:01:09;6.40;99.90
33831;DHT22;20137;48.834;8.732;2023-04-25T11:03:41;6.50;99.90
33831;DHT22;20137;48.834;8.732;2023-04-25T11:08:57;6.30;99.90
33831;DHT22;20137;48.834;8.732;2023-04-25T11:11:25;6.30;99.90
33831;DHT22;20137;48.834;8.732;2023-04-25T11:13:51;6.30;99.90
33831;DHT22;20137;48.834;8.732;2023-04-25T11:16:17;6.30;99.90
33831;DHT22;20137;48.834;8.732;2023-04-25T11:18:44;6.30;99.90
33831;DHT22;20137;48.834;8.732;2023-04-25T11:21:10;6.50;99.90
33831;DHT22;20137;48.834;8.732;2023-04-25T11:23:36;6.50;99.90
33831;DHT22;20137;48.834;8.732;2023-04-25T11:26:03;6.60;99.90
33831;DHT22;20137;48.834;8.732;2023-04-25T11:28:29;6.80;99.90
33831;DHT22;20137;48.834;8.732;2023-04-25T11:30:55;6.90;99.90
33831;DHT22;20137;48.834;8.732;2023-04-25T11:33:25;6.80;99.90
33831;DHT22;20137;48.834;8.732;2023-04-25T11:35:53;6.60;99.90
33831;DHT22;20137;48.834;8.732;2023-04-25T11:38:20;6.70;99.90
33831;DHT22;20137;48.834;8.732;2023-04-25T11:40:51;6.60;99.90
33831;DHT22;20137;48.834;8.732;2023-04-25T11:43:19;6.60;99.90
33831;DHT22;20137;48.834;8.732;2023-04-25T11:45:51;6.70;99.90
33831;DHT22;20137;48.834;8.732;2023-04-25T11:48:18;6.90;99.90
33831;DHT22;20137;48.834;8.732;2023-04-25T11:50:44;7.00;99.90
33831;DHT22;20137;48.834;8.732;2023-04-25T11:53:10;7.20;99.90
33831;DHT22;20137;48.834;8.732;2023-04-25T11:55:36;7.50;99.90
33831;DHT22;20137;48.834;8.732;2023-04-25T11:58:03;7.70;99.90
33831;DHT22;20137;48.834;8.732;2023-04-25T12:00:30;8.10;99.90
33831;DHT22;20137;48.834;8.732;2023-04-25T12:02:57;8.30;99.90
33831;DHT22;20137;48.834;8.732;2023-04-25T12:05:29;8.50;99.90
33831;DHT22;20137;48.834;8.732;2023-04-25T12:07:56;8.70;99.90
33831;DHT22;20137;48.834;8.732;2023-04-25T12:10:21;8.80;99.90
33831;DHT22;20137;48.834;8.732;2023-04-25T12:12:49;9.00;99.90
33831;DHT22;20137;48.834;8.732;2023-04-25T12:15:23;9.30;99.90
33831;DHT22;20137;48.834;8.732;2023-04-25T12:17:52;9.20;99.90
33831;DHT22;20137;48.834;8.732;2023-04-25T12:20:20;9.00;99.90
33831;DHT22;20137;48.834;8.732;2023-04-25T12:22:49;8.70;99.90
33831;DHT22;20137;48.834;8.732;2023-04-25T12:25:34;8.50;99.90
33831;DHT22;20137;48.834;8.732;2023-04-25T12:28:20;8.70;99.90
33831;DHT22;20137;48.834;8.732;2023-04-25T12:33:22;9.10;99.90
33831;DHT22;20137;48.834;8.732;2023-04-25T12:35:48;9.10;99.90
33831;DHT22;20137;48.834;8.732;2023-04-25T12:38:27;9.00;99.90
33831;DHT22;20137;48.834;8.732;2023-04-25T12:40:54;8.60;99.90
33831;DHT22;20137;48.834;8.732;2023-04-25T12:43:20;8.50;99.90
33831;DHT22;20137;48.834;8.732;2023-04-25T12:45:51;8.40;99.90
33831;DHT22;20137;48.834;8.732;2023-04-25T12:48:17;8.40;99.90
33831;DHT22;20137;48.834;8.732;2023-04-25T12:50:43;8.40;99.90
33831;DHT22;20137;48.834;8.732;2023-04-25T12:53:09;8.40;99.90
33831;DHT22;20137;48.834;8.732;2023-04-25T12:55:35;8.40;99.90
33831;DHT22;20137;48.834;8.732;2023-04-25T12:58:01;8.20;99.90
33831;DHT22;20137;48.834;8.732;2023-04-25T13:00:27;8.40;99.90
33831;DHT22;20137;48.834;8.732;2023-04-25T13:02:52;8.60;99.90
33831;DHT22;20137;48.834;8.732;2023-04-25T13:05:18;8.90;99.90
33831;DHT22;20137;48.834;8.732;2023-04-25T13:07:44;9.10;99.90
33831;DHT22;20137;48.834;8.732;2023-04-25T13:10:10;9.20;99.90
33831;DHT22;20137;48.834;8.732;2023-04-25T13:12:35;9.00;99.90
33831;DHT22;20137;48.834;8.732;2023-04-25T13:15:01;8.70;99.90
33831;DHT22;20137;48.834;8.732;2023-04-25T13:17:27;8.60;99.90
33831;DHT22;20137;48.834;8.732;2023-04-25T13:19:52;8.40;99.90
33831;DHT22;20137;48.834;8.732;2023-04-25T13:22:18;8.10;99.90
33831;DHT22;20137;48.834;8.732;2023-04-25T13:24:45;8.10;99.90
33831;DHT22;20137;48.834;8.732;2023-04-25T13:27:12;8.10;99.90
33831;DHT22;20137;48.834;8.732;2023-04-25T13:29:38;8.20;99.90
33831;DHT22;20137;48.834;8.732;2023-04-25T13:32:06;8.30;99.90
33831;DHT22;20137;48.834;8.732;2023-04-25T13:34:32;8.40;99.90
33831;DHT22;20137;48.834;8.732;2023-04-25T13:36:58;8.70;99.90
33831;DHT22;20137;48.834;8.732;2023-04-25T13:39:24;8.60;99.90
33831;DHT22;20137;48.834;8.732;2023-04-25T13:41:50;8.60;99.90
33831;DHT22;20137;48.834;8.732;2023-04-25T13:44:15;8.70;99.90
33831;DHT22;20137;48.834;8.732;2023-04-25T13:46:41;9.00;99.90
33831;DHT22;20137;48.834;8.732;2023-04-25T13:49:07;9.20;99.90
33831;DHT22;20137;48.834;8.732;2023-04-25T13:51:33;9.30;99.90
33831;DHT22;20137;48.834;8.732;2023-04-25T13:53:58;9.10;99.90
33831;DHT22;20137;48.834;8.732;2023-04-25T13:56:24;9.00;99.90
33831;DHT22;20137;48.834;8.732;2023-04-25T13:58:51;9.20;99.90
33831;DHT22;20137;48.834;8.732;2023-04-25T14:01:17;9.60;99.90
33831;DHT22;20137;48.834;8.732;2023-04-25T14:03:44;9.90;99.90
33831;DHT22;20137;48.834;8.732;2023-04-25T14:06:09;9.60;99.90
33831;DHT22;20137;48.834;8.732;2023-04-25T14:08:36;9.70;99.90
33831;DHT22;20137;48.834;8.732;2023-04-25T14:11:02;9.90;99.90
33831;DHT22;20137;48.834;8.732;2023-04-25T14:13:28;9.90;99.90
33831;DHT22;20137;48.834;8.732;2023-04-25T14:15:54;10.00;99.90
33831;DHT22;20137;48.834;8.732;2023-04-25T14:18:20;9.90;99.90
33831;DHT22;20137;48.834;8.732;2023-04-25T14:20:47;9.60;99.90
33831;DHT22;20137;48.834;8.732;2023-04-25T14:23:13;9.80;99.90
33831;DHT22;20137;48.834;8.732;2023-04-25T14:25:39;9.80;99.90
33831;DHT22;20137;48.834;8.732;2023-04-25T14:28:05;9.80;99.90
33831;DHT22;20137;48.834;8.732;2023-04-25T14:30:31;9.60;99.90
33831;DHT22;20137;48.834;8.732;2023-04-25T14:32:57;9.70;99.90
33831;DHT22;20137;48.834;8.732;2023-04-25T14:35:22;9.70;99.90
33831;DHT22;20137;48.834;8.732;2023-04-25T14:37:48;9.80;99.90
33831;DHT22;20137;48.834;8.732;2023-04-25T14:40:14;10.00;99.90
33831;DHT22;20137;48.834;8.732;2023-04-25T14:42:41;10.00;99.90
33831;DHT22;20137;48.834;8.732;2023-04-25T14:45:08;9.80;99.90
33831;DHT22;20137;48.834;8.732;2023-04-25T14:47:36;9.60;99.90
33831;DHT22;20137;48.834;8.732;2023-04-25T14:50:02;9.70;99.90
33831;DHT22;20137;48.834;8.732;2023-04-25T14:52:30;10.10;99.90
33831;DHT22;20137;48.834;8.732;2023-04-25T14:54:56;10.40;99.90
33831;DHT22;20137;48.834;8.732;2023-04-25T14:57:22;10.30;99.90
33831;DHT22;20137;48.834;8.732;2023-04-25T14:59:47;10.40;99.90
33831;DHT22;20137;48.834;8.732;2023-04-25T15:02:13;10.40;99.90
33831;DHT22;20137;48.834;8.732;2023-04-25T15:04:39;10.60;99.90
33831;DHT22;20137;48.834;8.732;2023-04-25T15:07:05;10.50;99.90
33831;DHT22;20137;48.834;8.732;2023-04-25T15:09:31;10.20;99.90
33831;DHT22;20137;48.834;8.732;2023-04-25T15:11:57;10.10;99.90
33831;DHT22;20137;48.834;8.732;2023-04-25T15:14:23;10.00;99.90
33831;DHT22;20137;48.834;8.732;2023-04-25T15:16:48;10.00;99.90
33831;DHT22;20137;48.834;8.732;2023-04-25T15:19:14;10.00;99.90
33831;DHT22;20137;48.834;8.732;2023-04-25T15:21:40;10.00;99.90
33831;DHT22;20137;48.834;8.732;2023-04-25T15:24:06;9.80;99.90
33831;DHT22;20137;48.834;8.732;2023-04-25T15:26:33;9.80;99.90
33831;DHT22;20137;48.834;8.732;2023-04-25T15:28:58;9.90;99.90
33831;DHT22;20137;48.834;8.732;2023-04-25T15:31:24;9.60;99.90
33831;DHT22;20137;48.834;8.732;2023-04-25T15:33:50;9.50;99.90
33831;DHT22;20137;48.834;8.732;2023-04-25T15:36:16;9.50;99.90
33831;DHT22;20137;48.834;8.732;2023-04-25T15:38:43;9.60;99.90
33831;DHT22;20137;48.834;8.732;2023-04-25T15:41:09;9.70;99.90
33831;DHT22;20137;48.834;8.732;2023-04-25T15:43:35;9.70;99.90
33831;DHT22;20137;48.834;8.732;2023-04-25T15:46:04;9.90;99.90
33831;DHT22;20137;48.834;8.732;2023-04-25T15:48:30;10.10;99.90
33831;DHT22;20137;48.834;8.732;2023-04-25T15:50:57;10.10;99.90